Time;durP1;ratioP1;P1;durP2;ratioP2;P2;SDS_P1;SDS_P2;PMS_P1;PMS_P2;Temp;Humidity;BMP_temperature;BMP_pressure;BME280_temperature;BME280_humidity;BME280_pressure;Samples;Min_cycle;Max_cycle;Signal;HPM_P1;HPM_P2
2021/08/10 00:00:20;;;;;;;;;;;15.90;1.00;;;;;;5032621;28;19909;-67
2021/08/10 00:02:45;;;;;;;;;;;15.80;1.00;;;;;;5031737;28;19909;-67
2021/08/10 00:05:11;;;;;;;;;;;15.80;1.00;;;;;;5032559;28;19909;-66
2021/08/10 00:07:37;;;;;;;;;;;15.80;1.00;;;;;;5031757;28;19988;-66
2021/08/10 00:10:03;;;;;;;;;;;15.70;1.00;;;;;;5032746;28;19921;-66
2021/08/10 00:12:28;;;;;;;;;;;15.70;1.00;;;;;;5032058;28;20407;-67
2021/08/10 00:14:54;;;;;;;;;;;15.70;1.00;;;;;;5032258;28;19913;-67
2021/08/10 00:17:19;;;;;;;;;;;15.60;1.00;;;;;;5031638;28;19921;-66
2021/08/10 00:19:45;;;;;;;;;;;15.60;1.00;;;;;;5032323;28;20350;-66
2021/08/10 00:22:10;;;;;;;;;;;15.50;1.00;;;;;;5032272;28;19909;-67
2021/08/10 00:24:36;;;;;;;;;;;15.50;1.00;;;;;;5032325;28;19913;-67
2021/08/10 00:27:01;;;;;;;;;;;15.40;1.00;;;;;;5031970;28;19909;-67
2021/08/10 00:29:27;;;;;;;;;;;15.40;1.00;;;;;;5031597;28;20385;-66
2021/08/10 00:31:53;;;;;;;;;;;15.40;1.00;;;;;;5032658;28;19913;-66
2021/08/10 00:34:18;;;;;;;;;;;15.30;1.00;;;;;;5032415;28;19917;-66
2021/08/10 00:36:44;;;;;;;;;;;15.40;1.00;;;;;;5032913;28;19975;-66
2021/08/10 00:39:10;;;;;;;;;;;15.30;1.00;;;;;;5032257;28;19962;-66
2021/08/10 00:41:36;;;;;;;;;;;15.30;1.00;;;;;;5033443;28;19917;-66
2021/08/10 00:44:01;;;;;;;;;;;15.20;1.00;;;;;;5032095;28;19925;-66
2021/08/10 00:46:27;;;;;;;;;;;15.30;1.00;;;;;;5032621;28;19963;-66
2021/08/10 00:48:52;;;;;;;;;;;15.30;1.00;;;;;;5032024;28;20007;-66
2021/08/10 00:51:18;;;;;;;;;;;15.20;1.00;;;;;;5032194;28;20007;-66
2021/08/10 00:53:43;;;;;;;;;;;15.20;1.00;;;;;;5032116;28;19917;-66
2021/08/10 00:56:09;;;;;;;;;;;15.20;1.00;;;;;;5032169;28;19992;-66
2021/08/10 00:58:36;;;;;;;;;;;15.20;1.00;;;;;;5030957;28;19921;-66
2021/08/10 01:01:01;;;;;;;;;;;15.20;1.00;;;;;;5030835;28;19915;-66
2021/08/10 01:03:27;;;;;;;;;;;15.20;1.00;;;;;;5031737;28;20000;-66
2021/08/10 01:05:53;;;;;;;;;;;15.20;1.00;;;;;;5032236;28;19913;-66
2021/08/10 01:08:39;;;;;;;;;;;15.10;1.00;;;;;;5031466;28;19909;-66
2021/08/10 01:11:18;;;;;;;;;;;15.10;1.00;;;;;;5032246;28;19991;-66
2021/08/10 01:13:50;;;;;;;;;;;15.10;1.00;;;;;;5031108;28;19938;-66
2021/08/10 01:16:18;;;;;;;;;;;15.10;1.00;;;;;;5032075;28;19913;-66
2021/08/10 01:18:52;;;;;;;;;;;15.10;1.00;;;;;;5031135;28;19909;-67
2021/08/10 01:21:18;;;;;;;;;;;15.10;1.00;;;;;;5031942;28;19979;-66
2021/08/10 01:23:46;;;;;;;;;;;15.10;1.00;;;;;;5031936;28;20369;-66
2021/08/10 01:26:30;;;;;;;;;;;15.00;1.00;;;;;;5032179;28;19924;-66
2021/08/10 01:29:15;;;;;;;;;;;15.00;1.00;;;;;;5030521;28;20323;-66
2021/08/10 01:31:41;;;;;;;;;;;15.00;1.00;;;;;;5031554;28;20009;-66
2021/08/10 01:34:12;;;;;;;;;;;15.00;1.00;;;;;;5032024;28;19991;-66
2021/08/10 01:36:39;;;;;;;;;;;14.90;1.00;;;;;;5032058;28;20274;-66
2021/08/10 01:39:05;;;;;;;;;;;14.90;1.00;;;;;;5031626;28;19966;-66
2021/08/10 01:41:31;;;;;;;;;;;14.80;1.00;;;;;;5031444;28;19963;-66
2021/08/10 01:43:58;;;;;;;;;;;14.80;1.00;;;;;;5031075;28;19920;-66
2021/08/10 01:46:24;;;;;;;;;;;14.80;1.00;;;;;;5031879;28;20290;-66
2021/08/10 01:48:50;;;;;;;;;;;14.80;1.00;;;;;;5031063;28;19909;-66
2021/08/10 01:51:16;;;;;;;;;;;14.70;1.00;;;;;;5032030;28;19931;-66
2021/08/10 01:53:41;;;;;;;;;;;14.70;1.00;;;;;;5031585;28;19909;-66
2021/08/10 01:56:07;;;;;;;;;;;14.70;1.00;;;;;;5031614;28;20003;-66
2021/08/10 01:58:35;;;;;;;;;;;14.60;1.00;;;;;;5030771;28;19916;-66
2021/08/10 02:01:00;;;;;;;;;;;14.60;1.00;;;;;;5032014;28;20003;-66
2021/08/10 02:03:26;;;;;;;;;;;14.60;1.00;;;;;;5032078;28;20003;-66
2021/08/10 02:05:52;;;;;;;;;;;14.60;1.00;;;;;;5031325;28;19916;-66
2021/08/10 02:08:18;;;;;;;;;;;14.60;1.00;;;;;;5030894;28;19913;-66
2021/08/10 02:10:44;;;;;;;;;;;14.50;1.00;;;;;;5031602;28;20261;-66
2021/08/10 02:13:11;;;;;;;;;;;14.50;1.00;;;;;;5031535;28;19917;-66
2021/08/10 02:15:38;;;;;;;;;;;14.40;1.00;;;;;;5032191;28;19920;-66
2021/08/10 02:18:04;;;;;;;;;;;14.40;1.00;;;;;;5030498;28;20007;-66
2021/08/10 02:20:29;;;;;;;;;;;14.30;1.00;;;;;;5031665;28;19949;-66
2021/08/10 02:22:55;;;;;;;;;;;14.30;1.00;;;;;;5031772;28;19951;-66
2021/08/10 02:25:25;;;;;;;;;;;14.30;1.00;;;;;;5033781;28;19961;-66
2021/08/10 02:27:50;;;;;;;;;;;14.30;1.00;;;;;;5034588;28;19909;-66
2021/08/10 02:30:18;;;;;;;;;;;14.20;1.00;;;;;;5035272;28;20421;-66
2021/08/10 02:32:44;;;;;;;;;;;14.20;1.00;;;;;;5035717;28;19913;-66
2021/08/10 02:35:10;;;;;;;;;;;14.20;1.00;;;;;;5035744;28;20246;-65
2021/08/10 02:37:37;;;;;;;;;;;14.20;1.00;;;;;;5034933;28;19989;-66
2021/08/10 02:40:07;;;;;;;;;;;14.10;1.00;;;;;;5035058;28;20051;-67
2021/08/10 02:42:34;;;;;;;;;;;14.10;1.00;;;;;;5034793;28;20277;-67
2021/08/10 02:45:01;;;;;;;;;;;14.10;1.00;;;;;;5035875;28;20350;-67
2021/08/10 02:47:29;;;;;;;;;;;14.10;1.00;;;;;;5034656;28;20277;-67
2021/08/10 02:49:54;;;;;;;;;;;14.10;1.00;;;;;;5035252;28;20289;-67
2021/08/10 02:52:20;;;;;;;;;;;14.10;1.00;;;;;;5034997;28;19913;-66
2021/08/10 02:54:46;;;;;;;;;;;14.10;1.00;;;;;;5035142;28;20003;-67
2021/08/10 02:57:26;;;;;;;;;;;14.00;1.00;;;;;;5032804;28;19917;-67
2021/08/10 03:00:00;;;;;;;;;;;14.00;1.00;;;;;;5034993;28;20402;-67
2021/08/10 03:02:30;;;;;;;;;;;14.00;1.00;;;;;;5034437;28;19913;-66
2021/08/10 03:04:57;;;;;;;;;;;14.00;1.00;;;;;;5034945;28;20370;-67
2021/08/10 03:07:25;;;;;;;;;;;13.90;1.00;;;;;;5034666;28;19999;-67
2021/08/10 03:09:52;;;;;;;;;;;13.90;1.00;;;;;;5035032;28;20142;-67
2021/08/10 03:12:19;;;;;;;;;;;13.90;1.00;;;;;;5034351;28;19940;-67
2021/08/10 03:14:45;;;;;;;;;;;13.90;1.00;;;;;;5035050;28;19909;-67
2021/08/10 03:17:10;;;;;;;;;;;13.90;1.00;;;;;;5034664;28;19913;-67
2021/08/10 03:19:36;;;;;;;;;;;13.90;1.00;;;;;;5034059;28;19909;-67
2021/08/10 03:22:04;;;;;;;;;;;13.90;1.00;;;;;;5034899;28;19975;-67
2021/08/10 03:24:30;;;;;;;;;;;13.90;1.00;;;;;;5034623;28;19909;-67
2021/08/10 03:26:56;;;;;;;;;;;13.90;1.00;;;;;;5034428;28;20320;-67
2021/08/10 03:29:22;;;;;;;;;;;13.90;1.00;;;;;;5033261;28;19927;-67
2021/08/10 03:31:47;;;;;;;;;;;13.90;1.00;;;;;;5034519;28;20000;-67
2021/08/10 03:34:13;;;;;;;;;;;13.90;1.00;;;;;;5034512;28;19924;-67
2021/08/10 03:36:40;;;;;;;;;;;13.90;1.00;;;;;;5033448;28;19913;-67
2021/08/10 03:39:05;;;;;;;;;;;13.90;1.00;;;;;;5033687;28;19909;-66
2021/08/10 03:41:31;;;;;;;;;;;13.90;1.00;;;;;;5034749;28;19963;-67
2021/08/10 03:43:57;;;;;;;;;;;13.90;1.00;;;;;;5034084;28;20289;-67
2021/08/10 03:46:23;;;;;;;;;;;13.90;1.00;;;;;;5034638;28;19913;-67
2021/08/10 03:48:49;;;;;;;;;;;13.90;1.00;;;;;;5033552;28;19909;-67
2021/08/10 03:51:15;;;;;;;;;;;13.90;1.00;;;;;;5034067;28;19916;-67
2021/08/10 03:53:41;;;;;;;;;;;13.90;1.00;;;;;;5034367;28;19909;-68
2021/08/10 03:56:07;;;;;;;;;;;13.90;1.00;;;;;;5034630;28;19913;-66
2021/08/10 03:58:34;;;;;;;;;;;13.90;1.00;;;;;;5033404;28;20215;-66
2021/08/10 04:01:01;;;;;;;;;;;14.00;1.00;;;;;;5034409;28;19913;-66
2021/08/10 04:03:30;;;;;;;;;;;14.10;1.00;;;;;;5033908;28;19932;-67
2021/08/10 04:05:56;;;;;;;;;;;14.10;1.00;;;;;;5033803;28;19916;-68
2021/08/10 04:08:22;;;;;;;;;;;14.20;1.00;;;;;;5033112;28;20351;-66
2021/08/10 04:10:48;;;;;;;;;;;14.20;1.00;;;;;;5033777;28;20286;-67
2021/08/10 04:13:14;;;;;;;;;;;14.30;1.00;;;;;;5032876;28;19963;-67
2021/08/10 04:15:41;;;;;;;;;;;14.30;1.00;;;;;;5033593;28;19909;-67
2021/08/10 04:18:07;;;;;;;;;;;14.40;1.00;;;;;;5032594;28;19941;-67
2021/08/10 04:20:33;;;;;;;;;;;14.40;1.00;;;;;;5033711;28;20313;-67
2021/08/10 04:22:58;;;;;;;;;;;14.40;1.00;;;;;;5032090;28;20663;-67
2021/08/10 04:25:23;;;;;;;;;;;14.40;1.00;;;;;;5032431;28;19909;-67
2021/08/10 04:27:49;;;;;;;;;;;14.40;1.00;;;;;;5031506;28;19979;-67
2021/08/10 04:30:14;;;;;;;;;;;14.50;1.00;;;;;;5032501;28;19928;-67
2021/08/10 04:32:40;;;;;;;;;;;14.50;1.00;;;;;;5032990;28;19909;-66
2021/08/10 04:35:06;;;;;;;;;;;14.50;1.00;;;;;;5032745;28;19913;-67
2021/08/10 04:37:31;;;;;;;;;;;14.60;1.00;;;;;;5035123;28;19956;-67
2021/08/10 04:39:57;;;;;;;;;;;14.70;1.00;;;;;;5034022;28;19909;-67
2021/08/10 04:42:22;;;;;;;;;;;14.80;1.00;;;;;;5032296;28;19913;-66
2021/08/10 04:44:48;;;;;;;;;;;14.90;1.00;;;;;;5032277;28;19916;-66
2021/08/10 04:47:13;;;;;;;;;;;14.90;1.00;;;;;;5031007;28;20302;-67
2021/08/10 04:49:39;;;;;;;;;;;15.00;1.00;;;;;;5031379;28;19935;-67
2021/08/10 04:52:04;;;;;;;;;;;15.10;1.00;;;;;;5031770;28;20284;-67
2021/08/10 04:54:30;;;;;;;;;;;15.20;1.00;;;;;;5032107;28;19916;-64
2021/08/10 04:56:55;;;;;;;;;;;15.20;1.00;;;;;;5030018;28;19919;-65
2021/08/10 04:59:21;;;;;;;;;;;15.30;1.00;;;;;;5030428;28;19959;-64
2021/08/10 05:01:47;;;;;;;;;;;15.30;1.00;;;;;;5031645;28;19909;-67
2021/08/10 05:04:12;;;;;;;;;;;15.40;1.00;;;;;;5031416;28;20290;-66
2021/08/10 05:06:38;;;;;;;;;;;15.40;1.00;;;;;;5031701;28;19963;-66
2021/08/10 05:09:06;;;;;;;;;;;15.50;1.00;;;;;;5030576;28;19909;-66
2021/08/10 05:11:31;;;;;;;;;;;15.50;1.00;;;;;;5031484;28;19909;-66
2021/08/10 05:13:57;;;;;;;;;;;15.60;1.00;;;;;;5030899;28;20110;-67
2021/08/10 05:16:22;;;;;;;;;;;15.70;1.00;;;;;;5030978;28;20497;-66
2021/08/10 05:18:49;;;;;;;;;;;15.80;1.00;;;;;;5030055;28;19913;-66
2021/08/10 05:21:16;;;;;;;;;;;16.00;1.00;;;;;;5031109;28;20005;-67
2021/08/10 05:23:41;;;;;;;;;;;16.40;1.00;;;;;;5030662;28;20321;-67
2021/08/10 05:26:07;;;;;;;;;;;16.80;99.90;;;;;;5031372;28;19995;-66
2021/08/10 05:28:32;;;;;;;;;;;17.00;1.00;;;;;;5029708;28;20284;-66
2021/08/10 05:30:58;;;;;;;;;;;17.10;99.90;;;;;;5030933;28;19970;-66
2021/08/10 05:33:24;;;;;;;;;;;17.10;1.00;;;;;;5029780;28;19949;-66
2021/08/10 05:35:50;;;;;;;;;;;17.20;1.00;;;;;;5030535;28;20397;-66
2021/08/10 05:38:15;;;;;;;;;;;17.30;99.90;;;;;;5030207;28;19940;-66
2021/08/10 05:40:41;;;;;;;;;;;17.30;99.90;;;;;;5031171;28;19909;-66
2021/08/10 05:43:06;;;;;;;;;;;17.30;99.90;;;;;;5030270;28;19909;-66
2021/08/10 05:45:32;;;;;;;;;;;17.30;1.00;;;;;;5030438;28;19921;-66
2021/08/10 05:47:57;;;;;;;;;;;17.30;1.00;;;;;;5029976;28;19913;-66
2021/08/10 05:50:23;;;;;;;;;;;17.20;1.00;;;;;;5030599;28;20289;-66
2021/08/10 05:52:49;;;;;;;;;;;17.30;1.00;;;;;;5030958;28;19963;-66
2021/08/10 05:55:14;;;;;;;;;;;17.20;1.00;;;;;;5031189;28;19931;-66
2021/08/10 05:57:40;;;;;;;;;;;17.10;1.00;;;;;;5029513;28;19951;-66
2021/08/10 06:00:06;;;;;;;;;;;17.10;1.00;;;;;;5030215;28;19909;-66
2021/08/10 06:02:33;;;;;;;;;;;17.10;1.00;;;;;;5031001;28;20028;-66
2021/08/10 06:04:59;;;;;;;;;;;17.20;1.00;;;;;;5030891;28;19910;-66
2021/08/10 06:07:24;;;;;;;;;;;17.20;1.00;;;;;;5030296;28;19924;-67
2021/08/10 06:09:50;;;;;;;;;;;17.30;1.00;;;;;;5029938;28;19909;-66
2021/08/10 06:12:15;;;;;;;;;;;17.50;1.00;;;;;;5030097;28;19909;-66
2021/08/10 06:14:41;;;;;;;;;;;17.60;56.90;;;;;;5030744;28;19909;-67
2021/08/10 06:17:06;;;;;;;;;;;17.80;1.00;;;;;;5030749;28;19932;-67
2021/08/10 06:19:32;;;;;;;;;;;18.00;1.00;;;;;;5030170;28;20318;-66
2021/08/10 06:21:58;;;;;;;;;;;18.20;99.90;;;;;;5030190;28;20055;-66
2021/08/10 06:24:23;;;;;;;;;;;18.60;1.00;;;;;;5030615;28;19913;-66
2021/08/10 06:26:49;;;;;;;;;;;18.80;99.90;;;;;;5030488;28;20259;-66
2021/08/10 06:29:14;;;;;;;;;;;18.90;1.00;;;;;;5029839;28;19917;-67
2021/08/10 06:31:40;;;;;;;;;;;19.00;1.00;;;;;;5030108;28;19915;-66
2021/08/10 06:34:05;;;;;;;;;;;19.00;1.00;;;;;;5030370;28;19909;-66
2021/08/10 06:36:31;;;;;;;;;;;19.30;1.00;;;;;;5029170;28;20370;-67
2021/08/10 06:38:56;;;;;;;;;;;19.40;99.90;;;;;;5029487;28;19913;-66
2021/08/10 06:41:22;;;;;;;;;;;19.50;99.90;;;;;;5030287;28;20270;-67
2021/08/10 06:43:47;;;;;;;;;;;19.70;99.90;;;;;;5029813;28;20007;-67
2021/08/10 06:46:13;;;;;;;;;;;19.90;99.90;;;;;;5030028;28;19913;-66
2021/08/10 06:48:38;;;;;;;;;;;20.10;83.20;;;;;;5029613;28;19909;-67
2021/08/10 06:51:04;;;;;;;;;;;20.20;1.50;;;;;;5030507;28;19909;-66
2021/08/10 06:53:29;;;;;;;;;;;20.30;1.00;;;;;;5030527;28;20034;-67
2021/08/10 06:55:55;;;;;;;;;;;20.40;1.00;;;;;;5030337;28;19910;-67
2021/08/10 06:58:20;;;;;;;;;;;20.40;1.00;;;;;;5029195;28;20000;-66
2021/08/10 07:00:46;;;;;;;;;;;20.30;1.00;;;;;;5030474;28;19913;-67
2021/08/10 07:03:11;;;;;;;;;;;20.30;1.00;;;;;;5030259;28;19920;-67
2021/08/10 07:05:37;;;;;;;;;;;20.40;1.00;;;;;;5030290;28;19909;-67
2021/08/10 07:08:03;;;;;;;;;;;20.40;1.00;;;;;;5029404;28;19913;-67
2021/08/10 07:10:28;;;;;;;;;;;20.40;1.00;;;;;;5029815;28;20381;-67
2021/08/10 07:12:54;;;;;;;;;;;20.50;1.00;;;;;;5032261;28;19944;-67
2021/08/10 07:15:19;;;;;;;;;;;20.60;1.00;;;;;;5033490;28;19909;-67
2021/08/10 07:17:45;;;;;;;;;;;20.90;1.00;;;;;;5033042;28;19913;-67
2021/08/10 07:20:11;;;;;;;;;;;21.40;1.00;;;;;;5033505;28;20189;-66
2021/08/10 07:22:36;;;;;;;;;;;21.90;1.00;;;;;;5032396;28;20372;-67
2021/08/10 07:25:03;;;;;;;;;;;22.50;1.00;;;;;;5033492;28;19909;-67
2021/08/10 07:27:28;;;;;;;;;;;23.40;99.90;;;;;;5032391;28;20165;-68
2021/08/10 07:29:54;;;;;;;;;;;24.00;99.90;;;;;;5033227;28;19917;-67
2021/08/10 07:32:19;;;;;;;;;;;24.40;99.90;;;;;;5032943;28;19909;-67
2021/08/10 07:34:45;;;;;;;;;;;24.80;99.90;;;;;;5033445;28;19909;-67
2021/08/10 07:37:10;;;;;;;;;;;25.40;99.90;;;;;;5033158;28;20011;-67
2021/08/10 07:39:36;;;;;;;;;;;25.70;99.90;;;;;;5032893;28;19910;-67
2021/08/10 07:42:01;;;;;;;;;;;25.80;99.90;;;;;;5033116;28;20472;-67
2021/08/10 07:44:27;;;;;;;;;;;26.00;99.90;;;;;;5032354;28;20267;-67
2021/08/10 07:46:52;;;;;;;;;;;26.90;99.90;;;;;;5032985;28;19913;-66
2021/08/10 07:49:18;;;;;;;;;;;28.60;99.90;;;;;;5032583;28;19913;-67
2021/08/10 07:51:43;;;;;;;;;;;30.10;99.90;;;;;;5033868;28;19909;-67
2021/08/10 07:54:09;;;;;;;;;;;30.80;99.90;;;;;;5033374;28;19909;-67
2021/08/10 07:56:34;;;;;;;;;;;31.20;99.90;;;;;;5033624;28;19982;-67
2021/08/10 07:59:00;;;;;;;;;;;31.90;99.90;;;;;;5032791;28;19909;-67
2021/08/10 08:01:25;;;;;;;;;;;32.70;99.90;;;;;;5033295;28;19959;-67
2021/08/10 08:03:51;;;;;;;;;;;33.10;99.90;;;;;;5033172;28;19909;-67
2021/08/10 08:06:16;;;;;;;;;;;33.20;99.90;;;;;;5033504;28;19916;-67
2021/08/10 08:08:42;;;;;;;;;;;33.20;99.90;;;;;;5031987;28;20000;-67
2021/08/10 08:11:07;;;;;;;;;;;34.00;99.90;;;;;;5033091;28;20003;-67
2021/08/10 08:13:33;;;;;;;;;;;34.10;99.90;;;;;;5032846;28;19921;-67
2021/08/10 08:15:59;;;;;;;;;;;34.50;99.90;;;;;;5033042;28;19916;-67
2021/08/10 08:18:24;;;;;;;;;;;33.50;99.90;;;;;;5032435;28;19920;-67
2021/08/10 08:20:50;;;;;;;;;;;33.40;99.90;;;;;;5032848;28;20334;-67
2021/08/10 08:23:16;;;;;;;;;;;33.80;99.90;;;;;;5031847;28;19916;-65
2021/08/10 08:25:42;;;;;;;;;;;34.30;99.90;;;;;;5031636;28;19909;-68
2021/08/10 08:28:09;;;;;;;;;;;35.20;99.90;;;;;;5031594;28;20385;-66
2021/08/10 08:30:38;;;;;;;;;;;37.60;99.90;;;;;;5032305;28;19915;-66
2021/08/10 08:33:04;;;;;;;;;;;39.30;99.90;;;;;;5031991;28;19920;-66
2021/08/10 08:35:30;;;;;;;;;;;41.00;99.90;;;;;;5032217;28;20012;-66
2021/08/10 08:37:55;;;;;;;;;;;42.10;99.90;;;;;;5031586;28;20007;-66
2021/08/10 08:40:21;;;;;;;;;;;42.00;99.90;;;;;;5032036;28;20422;-66
2021/08/10 08:42:46;;;;;;;;;;;41.80;99.90;;;;;;5031628;28;19948;-66
2021/08/10 08:45:12;;;;;;;;;;;42.20;99.90;;;;;;5032032;28;19948;-66
2021/08/10 08:47:39;;;;;;;;;;;42.90;99.00;;;;;;5031085;28;19952;-66
2021/08/10 08:50:05;;;;;;;;;;;43.90;94.00;;;;;;5032174;28;19909;-66
2021/08/10 08:52:32;;;;;;;;;;;43.60;84.50;;;;;;5030524;28;20279;-66
2021/08/10 08:54:58;;;;;;;;;;;44.10;72.80;;;;;;5031787;28;19909;-66
2021/08/10 08:57:24;;;;;;;;;;;45.00;62.20;;;;;;5030916;28;19913;-66
2021/08/10 08:59:50;;;;;;;;;;;45.50;53.80;;;;;;5031659;28;19936;-66
2021/08/10 09:02:17;;;;;;;;;;;46.00;48.20;;;;;;5031937;28;20354;-66
2021/08/10 09:04:43;;;;;;;;;;;44.50;37.00;;;;;;5031549;28;19992;-66
2021/08/10 09:07:09;;;;;;;;;;;43.60;30.40;;;;;;5031038;28;19910;-66
2021/08/10 09:09:34;;;;;;;;;;;44.30;28.80;;;;;;5030778;28;19971;-67
2021/08/10 09:12:01;;;;;;;;;;;44.20;25.70;;;;;;5031402;28;20208;-66
2021/08/10 09:14:44;;;;;;;;;;;45.00;23.40;;;;;;5029564;28;19992;-67
2021/08/10 09:17:11;;;;;;;;;;;45.60;20.50;;;;;;5030090;28;19968;-66
2021/08/10 09:19:40;;;;;;;;;;;46.20;17.90;;;;;;5030161;28;19910;-65
2021/08/10 09:22:15;;;;;;;;;;;47.00;16.30;;;;;;5030567;28;20009;-65
2021/08/10 09:24:42;;;;;;;;;;;47.30;12.80;;;;;;5029897;28;20020;-65
2021/08/10 09:27:20;;;;;;;;;;;47.20;9.50;;;;;;5031003;28;19971;-65
2021/08/10 09:29:46;;;;;;;;;;;46.50;6.30;;;;;;5031193;28;19928;-65
2021/08/10 09:32:11;;;;;;;;;;;46.60;3.90;;;;;;5031307;28;19909;-66
2021/08/10 09:34:37;;;;;;;;;;;46.80;1.70;;;;;;5030375;28;19913;-65
2021/08/10 09:37:02;;;;;;;;;;;46.20;1.00;;;;;;5030703;28;19970;-66
2021/08/10 09:39:32;;;;;;;;;;;46.30;1.00;;;;;;5030415;28;20018;-66
2021/08/10 09:42:02;;;;;;;;;;;46.70;1.00;;;;;;5031197;28;20366;-66
2021/08/10 09:44:27;;;;;;;;;;;47.00;1.00;;;;;;5030424;28;20362;-66
2021/08/10 09:46:53;;;;;;;;;;;47.70;1.00;;;;;;5031022;28;19971;-66
2021/08/10 09:49:19;;;;;;;;;;;48.20;1.00;;;;;;5030594;28;19948;-66
2021/08/10 09:51:48;;;;;;;;;;;46.80;1.00;;;;;;5030729;28;19940;-66
2021/08/10 09:54:15;;;;;;;;;;;46.80;1.00;;;;;;5031158;28;19940;-66
2021/08/10 09:56:52;;;;;;;;;;;46.60;1.00;;;;;;5031241;28;20318;-66
2021/08/10 09:59:21;;;;;;;;;;;45.90;1.00;;;;;;5029401;28;19917;-66
2021/08/10 10:01:49;;;;;;;;;;;45.00;1.00;;;;;;5030693;28;19909;-66
2021/08/10 10:04:15;;;;;;;;;;;43.80;1.00;;;;;;5030525;28;19920;-66
2021/08/10 10:06:41;;;;;;;;;;;42.70;1.00;;;;;;5030893;28;19909;-66
2021/08/10 10:09:06;;;;;;;;;;;42.40;1.00;;;;;;5030087;28;19910;-66
2021/08/10 10:11:37;;;;;;;;;;;42.90;1.00;;;;;;5030562;28;19917;-66
2021/08/10 10:14:02;;;;;;;;;;;43.20;1.00;;;;;;5030524;28;19914;-66
2021/08/10 10:16:28;;;;;;;;;;;43.60;1.00;;;;;;5031395;28;19921;-66
2021/08/10 10:18:55;;;;;;;;;;;43.40;1.00;;;;;;5029842;28;19909;-66
2021/08/10 10:21:21;;;;;;;;;;;43.40;1.00;;;;;;5030995;28;19929;-66
2021/08/10 10:23:48;;;;;;;;;;;43.20;1.00;;;;;;5029547;28;20047;-66
2021/08/10 10:26:14;;;;;;;;;;;42.10;1.00;;;;;;5030688;28;19967;-66
2021/08/10 10:28:39;;;;;;;;;;;40.50;1.00;;;;;;5029283;28;19917;-66
2021/08/10 10:31:05;;;;;;;;;;;39.70;1.00;;;;;;5030366;28;20023;-66
2021/08/10 10:33:30;;;;;;;;;;;39.20;1.00;;;;;;5029256;28;19909;-66
2021/08/10 10:35:58;;;;;;;;;;;38.60;1.00;;;;;;5030355;28;19967;-66
2021/08/10 10:38:23;;;;;;;;;;;38.40;1.00;;;;;;5029581;28;19917;-66
2021/08/10 10:40:52;;;;;;;;;;;38.00;1.00;;;;;;5030711;28;19909;-66
2021/08/10 10:43:18;;;;;;;;;;;38.50;1.10;;;;;;5030241;28;19988;-66
2021/08/10 10:45:43;;;;;;;;;;;38.20;1.00;;;;;;5030908;28;19909;-67
2021/08/10 10:48:27;;;;;;;;;;;38.30;1.00;;;;;;5033677;28;19975;-66
2021/08/10 10:51:02;;;;;;;;;;;38.50;1.00;;;;;;5034205;28;19919;-66
2021/08/10 10:53:28;;;;;;;;;;;37.50;1.00;;;;;;5034274;28;20337;-66
2021/08/10 10:55:54;;;;;;;;;;;37.30;1.00;;;;;;5034069;28;19952;-66
2021/08/10 10:58:23;;;;;;;;;;;36.00;1.00;;;;;;5031796;28;19968;-66
2021/08/10 11:01:07;;;;;;;;;;;36.30;1.80;;;;;;5037575;28;19958;-66
2021/08/10 11:03:33;;;;;;;;;;;36.20;2.40;;;;;;5037573;28;19932;-66
2021/08/10 11:06:18;;;;;;;;;;;35.70;3.20;;;;;;5037335;28;19932;-66
2021/08/10 11:08:44;;;;;;;;;;;35.70;4.60;;;;;;5036811;28;19916;-66
2021/08/10 11:11:29;;;;;;;;;;;36.20;5.90;;;;;;5037142;28;19989;-66
2021/08/10 11:13:54;;;;;;;;;;;36.60;7.20;;;;;;5036729;28;19909;-66
2021/08/10 11:16:20;;;;;;;;;;;36.60;7.90;;;;;;5036261;28;20365;-67
2021/08/10 11:18:45;;;;;;;;;;;36.30;8.10;;;;;;5035234;28;19909;-66
2021/08/10 11:21:11;;;;;;;;;;;36.10;8.80;;;;;;5035803;28;20314;-67
2021/08/10 11:23:37;;;;;;;;;;;35.40;9.10;;;;;;5034016;28;19955;-66
2021/08/10 11:26:05;;;;;;;;;;;34.80;9.50;;;;;;5033160;28;20255;-66
2021/08/10 11:28:30;;;;;;;;;;;35.50;11.40;;;;;;5032476;28;19920;-66
2021/08/10 11:30:59;;;;;;;;;;;35.30;11.70;;;;;;5033557;28;20019;-66
2021/08/10 11:33:35;;;;;;;;;;;36.20;13.30;;;;;;5033265;28;19967;-66
2021/08/10 11:36:10;;;;;;;;;;;37.60;14.10;;;;;;5033044;28;19913;-67
2021/08/10 11:38:55;;;;;;;;;;;38.90;14.90;;;;;;5032941;28;19983;-67
2021/08/10 11:41:27;;;;;;;;;;;39.50;13.50;;;;;;5026331;28;19909;-66
2021/08/10 11:43:54;;;;;;;;;;;39.30;10.90;;;;;;5033007;28;19914;-67
2021/08/10 11:46:22;;;;;;;;;;;38.90;9.60;;;;;;5033059;28;19913;-67
2021/08/10 11:48:49;;;;;;;;;;;38.90;8.50;;;;;;5031311;28;19909;-67
2021/08/10 11:51:22;;;;;;;;;;;39.10;7.80;;;;;;5033247;28;19921;-67
2021/08/10 11:53:48;;;;;;;;;;;38.90;6.90;;;;;;5033300;28;19909;-67
2021/08/10 11:56:40;;;;;;;;;;;38.80;6.40;;;;;;5033135;28;19932;-67
2021/08/10 11:59:09;;;;;;;;;;;38.80;5.60;;;;;;5029321;28;20286;-67
2021/08/10 12:01:36;;;;;;;;;;;38.10;4.50;;;;;;5033243;28;19910;-66
2021/08/10 12:04:11;;;;;;;;;;;37.80;4.30;;;;;;5032880;28;19913;-67
2021/08/10 12:06:37;;;;;;;;;;;37.40;4.50;;;;;;5032987;28;19917;-67
2021/08/10 12:09:03;;;;;;;;;;;37.30;5.50;;;;;;5032544;28;19913;-67
2021/08/10 12:11:29;;;;;;;;;;;37.20;5.40;;;;;;5032956;28;19972;-67
2021/08/10 12:14:06;;;;;;;;;;;37.00;4.70;;;;;;5032241;28;19956;-66
2021/08/10 12:16:32;;;;;;;;;;;36.50;4.60;;;;;;5032440;28;19921;-67
2021/08/10 12:18:57;;;;;;;;;;;36.00;4.90;;;;;;5031808;28;19917;-67
2021/08/10 12:21:23;;;;;;;;;;;35.50;5.20;;;;;;5032751;28;19909;-67
2021/08/10 12:23:48;;;;;;;;;;;35.10;5.60;;;;;;5032026;28;19916;-66
2021/08/10 12:26:16;;;;;;;;;;;34.60;6.40;;;;;;5032455;28;19917;-66
2021/08/10 12:28:55;;;;;;;;;;;34.20;7.40;;;;;;5031190;28;19913;-66
2021/08/10 12:31:20;;;;;;;;;;;33.90;7.60;;;;;;5032666;28;19909;-66
2021/08/10 12:33:50;;;;;;;;;;;33.40;9.60;;;;;;5032056;28;19915;-66
2021/08/10 12:36:15;;;;;;;;;;;33.20;11.10;;;;;;5032234;28;20368;-67
2021/08/10 12:38:41;;;;;;;;;;;33.10;13.70;;;;;;5031082;28;19933;-67
2021/08/10 12:41:06;;;;;;;;;;;32.90;14.00;;;;;;5032011;28;19909;-67
2021/08/10 12:43:32;;;;;;;;;;;32.70;14.90;;;;;;5031524;28;19952;-66
2021/08/10 12:45:58;;;;;;;;;;;32.40;16.20;;;;;;5032671;28;19909;-67
2021/08/10 12:48:23;;;;;;;;;;;32.10;16.30;;;;;;5031994;28;20381;-67
2021/08/10 12:50:58;;;;;;;;;;;31.40;17.00;;;;;;5031983;28;20040;-66
2021/08/10 12:53:24;;;;;;;;;;;31.00;18.00;;;;;;5032232;28;19913;-66
2021/08/10 12:55:50;;;;;;;;;;;30.80;20.00;;;;;;5032856;28;19958;-66
2021/08/10 12:58:16;;;;;;;;;;;30.70;22.00;;;;;;5030956;28;19924;-66
2021/08/10 13:00:42;;;;;;;;;;;30.70;23.10;;;;;;5031643;28;19909;-66
2021/08/10 13:03:23;;;;;;;;;;;30.50;24.50;;;;;;5031317;28;20014;-66
2021/08/10 13:05:49;;;;;;;;;;;30.50;26.70;;;;;;5030032;28;20334;-66
2021/08/10 13:08:14;;;;;;;;;;;30.50;28.10;;;;;;5030516;28;19909;-68
2021/08/10 13:10:41;;;;;;;;;;;30.40;29.50;;;;;;5031600;28;19909;-66
2021/08/10 13:13:07;;;;;;;;;;;30.40;31.20;;;;;;5030752;28;19909;-68
2021/08/10 13:15:45;;;;;;;;;;;30.40;35.00;;;;;;5031308;28;19913;-67
2021/08/10 13:18:24;;;;;;;;;;;30.30;33.50;;;;;;5030881;28;19952;-66
2021/08/10 13:20:49;;;;;;;;;;;30.40;36.10;;;;;;5031237;28;19937;-66
2021/08/10 13:23:15;;;;;;;;;;;30.60;37.00;;;;;;5031234;28;20333;-69
2021/08/10 13:25:51;;;;;;;;;;;30.70;38.00;;;;;;5031232;28;19909;-66
2021/08/10 13:28:17;;;;;;;;;;;30.90;38.70;;;;;;5030010;28;19916;-66
2021/08/10 13:30:42;;;;;;;;;;;30.90;40.90;;;;;;5031059;28;20281;-67
2021/08/10 13:33:12;;;;;;;;;;;30.90;40.40;;;;;;5030904;28;19951;-66
2021/08/10 13:35:38;;;;;;;;;;;30.80;40.90;;;;;;5031065;28;20243;-66
2021/08/10 13:38:04;;;;;;;;;;;30.80;41.50;;;;;;5029948;28;20351;-66
2021/08/10 13:40:33;;;;;;;;;;;30.70;42.70;;;;;;5030186;28;20206;-66
2021/08/10 13:42:58;;;;;;;;;;;30.60;44.00;;;;;;5029972;28;19933;-66
2021/08/10 13:45:25;;;;;;;;;;;30.60;44.60;;;;;;5030772;28;20250;-68
2021/08/10 13:47:53;;;;;;;;;;;30.60;44.80;;;;;;5030067;28;19916;-66
2021/08/10 13:50:19;;;;;;;;;;;30.60;46.20;;;;;;5030524;28;20401;-67
2021/08/10 13:52:45;;;;;;;;;;;30.60;47.10;;;;;;5030642;28;20397;-67
2021/08/10 13:55:11;;;;;;;;;;;30.70;48.20;;;;;;5030253;28;19909;-66
2021/08/10 13:57:37;;;;;;;;;;;30.70;49.60;;;;;;5027831;28;19940;-66
2021/08/10 14:00:03;;;;;;;;;;;30.80;50.60;;;;;;5030415;28;20390;-66
2021/08/10 14:02:28;;;;;;;;;;;31.00;50.60;;;;;;5030610;28;19956;-66
2021/08/10 14:04:54;;;;;;;;;;;31.20;51.10;;;;;;5030339;28;20400;-68
2021/08/10 14:07:22;;;;;;;;;;;31.20;50.50;;;;;;5029551;28;19963;-66
2021/08/10 14:09:47;;;;;;;;;;;31.20;51.00;;;;;;5030288;28;19909;-66
2021/08/10 14:12:13;;;;;;;;;;;31.30;51.50;;;;;;5030070;28;20170;-66
2021/08/10 14:14:38;;;;;;;;;;;31.40;51.20;;;;;;5030800;28;19916;-66
2021/08/10 14:17:04;;;;;;;;;;;31.30;50.70;;;;;;5030624;28;19913;-67
2021/08/10 14:19:30;;;;;;;;;;;31.30;50.70;;;;;;5029379;28;19909;-66
2021/08/10 14:21:55;;;;;;;;;;;31.30;50.90;;;;;;5033559;28;19909;-66
2021/08/10 14:24:21;;;;;;;;;;;31.20;50.80;;;;;;5034418;28;19945;-66